Αρχική σελίδα
METAR-TAF:

METAR-TAF

Αεροδρόμια :

Merced Municipal Airport (MacReady Field)

Merced, Καλιφόρνια, Ηνωμένες Πολιτείες Αμερικής

γεωγραφικό πλάτος: 37-16-59N, γεωγραφικό μήκος: 120-30-28W, υψόμετρο: 47 μ

Παρών καιρός

Η αναφορά έγινε 56 λεπτά πριν, στις 17:53 UTC
Ήπιος άνεμος
Θερμοκρασία 11°C
Υγρασία 58%
Πίεση 1020 hPa
Ορατότητα: 1.6 χλμ
Καθαρός ουρανός
καταχνιά

METAR: KMCE 181753Z AUTO 00000KT 1SM HZ CLR 11/03 A3012 RMK AO2 SLP199 T01060028 10106 20000 50006

Χρόνος: 10:49 (18:49 UTC)

Πρόγνωση Καιρού

Η αναφορά έγινε 1 ώρα και 29 λεπτά πριν, στις 17:20 UTC
Η πρόγνωση ισχύει από τις 18 στις 18 UTC έως τις 19 στις 18 UTC
Άνεμος 3 kt από μεταβλητές κατευθύνσεις
Ορατότητα: 3.2 χλμ
Διάσπαρτα νέφη σε ύψος 20000 πόδια
καταχνιά, καπνός

TAF: KMCE 181720Z 1818/1918 VRB03KT 2SM HZ FU SCT200

Μετεωρολογικές αναφορές και προγνώσεις για περισσότερα από 4000 αεροδρόμια (δελτία METAR και TAF).

Οι διαθέσιμοι σταθμοί απεικονίζονται στο χάρτη με κίτρινες και κόκκινες κουκκίδες.

Μετακινήστε το ποντίκι πάνω από τις κουκκίδες για να δείτε το όνομα του σταθμού.

Στη συνέχεια, κάντε κλικ για να δείτε τις μετεωρολογικές αναφορές και τις προγνώσεις καιρού.

Για να αλλάξετε το χάρτη: κάντε κλικ στα πράσινα κουμπιά με τον μαύρο σταυρό για να ζουμάρετε, στο πράσινο κουμπί με την παύλα για να αφαιρέσετε το ζουμ ή στα πράσινα βέλη για να αντιπαραβάλλετε χάρτες.


METAR-TAF: